createdAt,value
2019-01-22T00:01:17.257Z,101044.73
2019-01-22T00:03:46.816Z,101039.94
2019-01-22T00:06:16.887Z,101041.98
2019-01-22T00:08:46.436Z,101052.42
2019-01-22T00:11:16.083Z,101030.66
2019-01-22T00:13:45.651Z,101035.38
2019-01-22T00:16:15.235Z,101027.10
2019-01-22T00:18:44.798Z,101018.45
2019-01-22T00:21:14.448Z,101022.53
2019-01-22T00:23:44.013Z,101019.09
2019-01-22T00:26:13.591Z,101017.18
2019-01-22T00:28:43.150Z,101017.56
2019-01-22T00:31:12.717Z,101019.22
2019-01-22T00:33:42.309Z,101016.29
2019-01-22T00:36:11.969Z,101009.42
2019-01-22T00:38:41.507Z,101018.20
2019-01-22T00:41:11.070Z,101017.31
2019-01-22T00:43:40.656Z,101005.86
2019-01-22T00:46:10.565Z,101012.99
2019-01-22T00:48:40.218Z,101011.72
2019-01-22T00:51:09.802Z,101008.02
2019-01-22T00:53:39.357Z,101004.97
2019-01-22T00:56:08.990Z,101004.47
2019-01-22T00:58:39.042Z,101000.95
2019-01-22T01:01:08.665Z,100997.89
2019-01-22T01:03:38.247Z,100993.95
2019-01-22T01:06:08.050Z,100991.67
2019-01-22T01:08:37.627Z,100992.05
2019-01-22T01:11:07.254Z,100979.59
2019-01-22T01:13:36.841Z,100991.16
2019-01-22T01:16:06.624Z,100983.02
2019-01-22T01:18:36.288Z,100986.20
2019-01-22T01:21:05.818Z,100982.87
2019-01-22T01:23:35.430Z,100986.31
2019-01-22T01:26:05.237Z,100983.38
2019-01-22T01:28:34.823Z,100974.09
2019-01-22T01:31:04.446Z,100975.48
2019-01-22T01:33:34.037Z,100969.33
2019-01-22T01:36:03.586Z,100964.09
2019-01-22T01:38:33.653Z,100962.80
2019-01-22T01:41:03.208Z,100961.47
2019-01-22T01:43:32.790Z,100959.66
2019-01-22T01:46:02.411Z,100959.78
2019-01-22T01:48:31.999Z,100947.16
2019-01-22T01:51:01.565Z,100949.59
2019-01-22T01:53:31.144Z,100950.51
2019-01-22T01:56:00.692Z,100943.76
2019-01-22T01:58:30.277Z,100943.88
2019-01-22T02:01:00.071Z,100937.66
2019-01-22T02:03:29.667Z,100931.85
2019-01-22T02:05:59.502Z,100934.05
2019-01-22T02:08:29.083Z,100932.80
2019-01-22T02:10:58.654Z,100924.18
2019-01-22T02:13:28.394Z,100925.22
2019-01-22T02:16:02.658Z,100924.71
2019-01-22T02:18:57.952Z,100918.34
2019-01-22T02:22:10.256Z,100919.73
2019-01-22T02:25:05.660Z,100911.84
2019-01-22T02:27:40.206Z,100900.08
2019-01-22T02:30:29.721Z,100898.90
2019-01-22T02:33:34.575Z,100887.61
2019-01-22T02:36:43.740Z,100887.81
2019-01-22T02:39:32.780Z,100877.14
2019-01-22T02:42:10.099Z,100872.74
2019-01-22T02:45:08.634Z,100868.81
2019-01-22T02:47:54.834Z,100868.19
2019-01-22T02:50:37.725Z,100863.59
2019-01-22T02:53:14.888Z,100864.77
2019-01-22T02:55:57.798Z,100858.04
2019-01-22T02:58:47.091Z,100861.42
2019-01-22T03:01:39.553Z,100862.66
2019-01-22T03:04:22.320Z,100851.36
2019-01-22T03:07:05.740Z,100851.36
2019-01-22T03:09:48.864Z,100839.50
2019-01-22T03:12:41.402Z,100830.58
2019-01-22T03:15:47.489Z,100837.17
2019-01-22T03:18:33.503Z,100833.45
2019-01-22T03:21:48.825Z,100833.07
2019-01-22T03:24:49.904Z,100825.92
2019-01-22T03:27:26.946Z,100822.98
2019-01-22T03:30:33.028Z,100831.91
2019-01-22T03:33:15.438Z,100826.58
2019-01-22T03:36:32.799Z,100822.15
2019-01-22T03:39:22.042Z,100822.12
2019-01-22T03:42:16.707Z,100812.30
2019-01-22T03:45:23.139Z,100818.31
2019-01-22T03:48:03.055Z,100813.58
2019-01-22T03:50:58.704Z,100816.95
2019-01-22T03:53:54.010Z,100812.28
2019-01-22T03:56:34.000Z,100815.69
2019-01-22T03:59:03.554Z,100813.56
2019-01-22T04:01:33.456Z,100816.34
2019-01-22T04:04:03.388Z,100808.92
2019-01-22T04:06:32.940Z,100809.34
2019-01-22T04:09:06.556Z,100809.46
2019-01-22T04:11:36.341Z,100815.06
2019-01-22T04:14:06.138Z,100803.05
2019-01-22T04:16:36.048Z,100802.91
2019-01-22T04:19:05.877Z,100803.70
2019-01-22T04:21:36.037Z,100798.06
2019-01-22T04:24:31.257Z,100796.53
2019-01-22T04:27:20.535Z,100795.92
2019-01-22T04:30:28.305Z,100784.95
2019-01-22T04:33:43.375Z,100781.17
2019-01-22T04:36:32.367Z,100778.06
2019-01-22T04:39:23.468Z,100782.50
2019-01-22T04:42:03.907Z,100772.13
2019-01-22T04:44:50.255Z,100775.17
2019-01-22T04:47:42.621Z,100775.00
2019-01-22T04:50:22.198Z,100774.04
2019-01-22T04:53:11.517Z,100767.45
2019-01-22T04:55:57.805Z,100767.55
2019-01-22T04:58:44.236Z,100755.67
2019-01-22T05:01:32.781Z,100755.78
2019-01-22T05:04:28.457Z,100752.45
2019-01-22T05:07:24.666Z,100748.33
2019-01-22T05:10:24.368Z,100747.55
2019-01-22T05:13:15.429Z,100751.98
2019-01-22T05:16:12.491Z,100758.05
2019-01-22T05:18:52.103Z,100746.48
2019-01-22T05:21:35.420Z,100748.44
2019-01-22T05:24:30.891Z,100750.18
2019-01-22T05:27:32.536Z,100750.25
2019-01-22T05:30:28.933Z,100749.69
2019-01-22T05:33:21.325Z,100746.64
2019-01-22T05:36:24.564Z,100747.42
2019-01-22T05:39:13.393Z,100743.98
2019-01-22T05:42:04.029Z,100729.73
2019-01-22T05:44:53.209Z,100746.99
2019-01-22T05:47:36.060Z,100742.56
2019-01-22T05:50:43.462Z,100744.23
2019-01-22T05:53:35.675Z,100745.01
2019-01-22T05:56:18.045Z,100741.50
2019-01-22T05:59:11.761Z,100737.84
2019-01-22T06:01:54.913Z,100739.79
2019-01-22T06:05:06.673Z,100736.14
2019-01-22T06:08:09.630Z,100733.58
2019-01-22T06:11:14.146Z,100738.58
2019-01-22T06:13:54.226Z,100732.37
2019-01-22T06:16:48.272Z,100728.55
2019-01-22T06:19:28.816Z,100725.61
2019-01-22T06:22:42.391Z,100717.07
2019-01-22T06:25:34.529Z,100720.78
2019-01-22T06:28:32.513Z,100724.83
2019-01-22T06:31:21.698Z,100720.22
2019-01-22T06:33:58.918Z,100714.84
2019-01-22T06:37:06.906Z,100716.22
2019-01-22T06:39:43.807Z,100714.66
2019-01-22T06:42:21.016Z,100724.45
2019-01-22T06:45:14.709Z,100714.84
2019-01-22T06:48:16.869Z,100719.77
2019-01-22T06:51:25.409Z,100720.77
2019-01-22T06:54:08.407Z,100716.44
2019-01-22T06:56:51.489Z,100721.05
2019-01-22T06:59:38.201Z,100721.72
2019-01-22T07:02:18.366Z,100716.12
2019-01-22T07:05:40.407Z,100714.95
2019-01-22T07:08:23.323Z,100724.09
2019-01-22T07:11:28.241Z,100722.25
2019-01-22T07:14:27.941Z,100720.69
2019-01-22T07:17:07.869Z,100717.04
2019-01-22T07:20:09.296Z,100715.98
2019-01-22T07:22:49.122Z,100713.03
2019-01-22T07:25:41.365Z,100718.63
2019-01-22T07:28:30.539Z,100720.02
2019-01-22T07:31:16.945Z,100718.34
2019-01-22T07:34:18.301Z,100708.92
2019-01-22T07:37:16.739Z,100711.30
2019-01-22T07:40:02.846Z,100710.23
2019-01-22T07:42:45.913Z,100718.06
2019-01-22T07:45:48.186Z,100718.48
2019-01-22T07:48:22.446Z,100717.02
2019-01-22T07:51:15.228Z,100720.29
2019-01-22T07:53:52.173Z,100705.24
2019-01-22T07:56:29.002Z,100708.59
2019-01-22T07:59:12.060Z,100708.80
2019-01-22T08:02:01.374Z,100709.36
2019-01-22T08:05:04.577Z,100700.53
2019-01-22T08:08:18.416Z,100697.00
2019-01-22T08:11:19.357Z,100694.06
2019-01-22T08:13:59.393Z,100696.41
2019-01-22T08:16:59.505Z,100698.37
2019-01-22T08:20:02.841Z,100705.23
2019-01-22T08:23:02.912Z,100698.55
2019-01-22T08:25:57.663Z,100694.30
2019-01-22T08:29:06.864Z,100693.42
2019-01-22T08:31:52.526Z,100691.35
2019-01-22T08:34:41.051Z,100695.25
2019-01-22T08:37:54.927Z,100692.70
2019-01-22T08:40:38.044Z,100685.13
2019-01-22T08:43:30.264Z,100693.09
2019-01-22T08:46:10.402Z,100690.63
2019-01-22T08:49:05.570Z,100692.64
2019-01-22T08:51:51.536Z,100687.19
2019-01-22T08:55:00.527Z,100680.54
2019-01-22T08:57:59.090Z,100675.42
2019-01-22T09:00:45.287Z,100673.50
2019-01-22T09:03:40.453Z,100679.75
2019-01-22T09:06:19.884Z,100673.76
2019-01-22T09:09:00.045Z,100673.16
2019-01-22T09:11:43.319Z,100670.31
2019-01-22T09:14:37.946Z,100666.45
2019-01-22T09:17:30.517Z,100659.98
2019-01-22T09:20:13.972Z,100659.39
2019-01-22T09:22:50.776Z,100655.52
2019-01-22T09:25:37.002Z,100646.81
2019-01-22T09:28:13.960Z,100639.20
2019-01-22T09:31:09.270Z,100647.38
2019-01-22T09:33:52.115Z,100655.96
2019-01-22T09:36:29.199Z,100650.20
2019-01-22T09:38:59.282Z,100639.35
2019-01-22T09:41:28.890Z,100642.38
2019-01-22T09:43:58.440Z,100634.09
2019-01-22T09:46:28.019Z,100631.75
2019-01-22T09:48:57.562Z,100631.04
2019-01-22T09:51:27.273Z,100625.80
2019-01-22T09:53:56.829Z,100624.90
2019-01-22T09:56:26.402Z,100624.50
2019-01-22T09:58:55.952Z,100625.64
2019-01-22T10:01:25.599Z,100617.16
2019-01-22T10:03:55.142Z,100616.30
2019-01-22T10:06:26.041Z,100616.56
2019-01-22T10:08:55.748Z,100623.81
2019-01-22T10:11:25.442Z,100613.27
2019-01-22T10:13:55.054Z,100619.72
2019-01-22T10:16:24.689Z,100615.64
2019-01-22T10:18:54.244Z,100613.61
2019-01-22T10:21:23.820Z,100611.47
2019-01-22T10:23:53.395Z,100607.86
2019-01-22T10:26:22.981Z,100602.97
2019-01-22T10:28:52.529Z,100604.66
2019-01-22T10:31:22.110Z,100604.55
2019-01-22T10:33:51.033Z,100605.42
2019-01-22T10:36:20.966Z,100595.89
2019-01-22T10:38:49.756Z,100606.44
2019-01-22T10:41:19.478Z,100590.88
2019-01-22T10:43:49.151Z,100595.59
2019-01-22T10:46:17.873Z,100594.02
2019-01-22T10:48:47.553Z,100595.59
2019-01-22T10:51:16.359Z,100590.70
2019-01-22T10:53:45.127Z,100580.31
2019-01-22T10:56:15.151Z,100576.58
2019-01-22T10:58:44.727Z,100571.02
2019-01-22T11:01:14.434Z,100562.20
2019-01-22T11:03:43.322Z,100569.73
2019-01-22T11:06:12.093Z,100568.83
2019-01-22T11:08:40.854Z,100559.05
2019-01-22T11:11:09.795Z,100557.35
2019-01-22T11:13:38.571Z,100551.72
2019-01-22T11:16:07.348Z,100540.44
2019-01-22T11:18:36.133Z,100537.23
2019-01-22T11:21:05.075Z,100531.31
2019-01-22T11:23:33.841Z,100537.41
2019-01-22T11:26:02.633Z,100529.81
2019-01-22T11:28:31.534Z,100524.30
2019-01-22T11:31:01.209Z,100523.77
2019-01-22T11:33:33.444Z,100527.91
2019-01-22T11:36:02.585Z,100529.76
2019-01-22T11:38:32.213Z,100526.28
2019-01-22T11:41:01.804Z,100526.16
2019-01-22T11:43:31.462Z,100515.21
2019-01-22T11:46:01.079Z,100514.12
2019-01-22T11:48:30.723Z,100509.81
2019-01-22T11:51:00.274Z,100502.27
2019-01-22T11:53:29.840Z,100503.39
2019-01-22T11:55:59.516Z,100507.00
2019-01-22T11:58:29.218Z,100504.53
2019-01-22T12:00:58.770Z,100503.01
2019-01-22T12:03:28.466Z,100492.10
2019-01-22T12:05:58.020Z,100492.05
2019-01-22T12:08:27.993Z,100490.69
2019-01-22T12:10:57.613Z,100495.90
2019-01-22T12:13:27.302Z,100488.52
2019-01-22T12:15:56.867Z,100492.77
2019-01-22T12:18:26.628Z,100477.06
2019-01-22T12:20:56.276Z,100477.52
2019-01-22T12:23:25.818Z,100466.94
2019-01-22T12:25:57.363Z,100457.00
2019-01-22T12:28:26.827Z,100448.46
2019-01-22T12:30:56.525Z,100443.33
2019-01-22T12:33:26.113Z,100445.06
2019-01-22T12:35:55.667Z,100442.58
2019-01-22T12:38:25.241Z,100437.61
2019-01-22T12:40:54.988Z,100440.66
2019-01-22T12:43:24.586Z,100437.30
2019-01-22T12:45:54.195Z,100435.20
2019-01-22T12:48:23.838Z,100434.89
2019-01-22T12:50:53.396Z,100427.36
2019-01-22T12:53:22.997Z,100425.31
2019-01-22T12:55:52.806Z,100420.34
2019-01-22T12:58:22.379Z,100412.33
2019-01-22T13:00:51.920Z,100406.00
2019-01-22T13:03:21.516Z,100406.48
2019-01-22T13:05:55.587Z,100396.22
2019-01-22T13:08:25.155Z,100403.03
2019-01-22T13:10:55.074Z,100391.89
2019-01-22T13:13:24.680Z,100385.08
2019-01-22T13:15:54.619Z,100371.36
2019-01-22T13:18:24.273Z,100376.50
2019-01-22T13:20:54.000Z,100371.29
2019-01-22T13:23:23.566Z,100369.92
2019-01-22T13:25:53.224Z,100366.41
2019-01-22T13:28:22.842Z,100362.95
2019-01-22T13:30:52.507Z,100353.91
2019-01-22T13:33:22.073Z,100351.34
2019-01-22T13:35:52.199Z,100354.06
2019-01-22T13:38:21.051Z,100352.78
2019-01-22T13:40:50.644Z,100346.44
2019-01-22T13:43:20.304Z,100341.31
2019-01-22T13:45:52.665Z,100337.94
2019-01-22T13:48:22.507Z,100332.81
2019-01-22T13:50:52.084Z,100329.29
2019-01-22T13:53:21.731Z,100321.44
2019-01-22T13:55:51.664Z,100328.13
2019-01-22T13:58:21.277Z,100319.48
2019-01-22T14:00:50.874Z,100312.11
2019-01-22T14:03:19.692Z,100315.00
2019-01-22T14:05:49.302Z,100308.91
2019-01-22T14:08:18.868Z,100311.47
2019-01-22T14:10:48.461Z,100301.62
2019-01-22T14:13:18.018Z,100300.73
2019-01-22T14:15:47.650Z,100303.62
2019-01-22T14:18:17.403Z,100298.90
2019-01-22T14:20:46.963Z,100297.17
2019-01-22T14:23:16.574Z,100290.12
2019-01-22T14:25:46.140Z,100299.82
2019-01-22T14:28:15.810Z,100292.05
2019-01-22T14:30:45.499Z,100291.17
2019-01-22T14:33:15.088Z,100288.94
2019-01-22T14:35:44.662Z,100287.49
2019-01-22T14:38:14.250Z,100279.36
2019-01-22T14:40:43.795Z,100279.28
2019-01-22T14:43:13.369Z,100277.36
2019-01-22T14:45:43.015Z,100280.25
2019-01-22T14:48:12.673Z,100274.96
2019-01-22T14:50:42.270Z,100268.00
2019-01-22T14:53:11.890Z,100266.59
2019-01-22T14:55:41.439Z,100269.80
2019-01-22T14:58:11.156Z,100263.63
2019-01-22T15:00:42.250Z,100257.47
2019-01-22T15:03:11.860Z,100258.63
2019-01-22T15:05:41.478Z,100259.67
2019-01-22T15:08:11.066Z,100256.55
2019-01-22T15:10:40.698Z,100248.62
2019-01-22T15:13:10.386Z,100247.61
2019-01-22T15:15:39.936Z,100242.33
2019-01-22T15:18:09.540Z,100243.45
2019-01-22T15:20:39.101Z,100248.41
2019-01-22T15:23:08.728Z,100242.73
2019-01-22T15:25:38.243Z,100229.04
2019-01-22T15:28:08.002Z,100225.95
2019-01-22T15:30:38.039Z,100221.95
2019-01-22T15:33:07.955Z,100231.95
2019-01-22T15:35:37.510Z,100226.75
2019-01-22T15:38:07.263Z,100232.59
2019-01-22T15:40:36.773Z,100223.73
2019-01-22T15:43:06.492Z,100226.92
2019-01-22T15:45:36.126Z,100223.24
2019-01-22T15:48:05.825Z,100218.47
2019-01-22T15:50:35.414Z,100221.75
2019-01-22T15:53:05.326Z,100219.50
2019-01-22T15:55:36.325Z,100220.53
2019-01-22T15:58:06.238Z,100219.44
2019-01-22T16:00:36.030Z,100219.67
2019-01-22T16:03:07.113Z,100223.34
2019-01-22T16:05:36.839Z,100221.42
2019-01-22T16:08:06.681Z,100222.92
2019-01-22T16:10:36.447Z,100223.36
2019-01-22T16:13:06.226Z,100216.48
2019-01-22T16:15:35.940Z,100229.27
2019-01-22T16:18:05.953Z,100217.20
2019-01-22T16:20:35.533Z,100212.80
2019-01-22T16:23:05.266Z,100205.83
2019-01-22T16:25:35.039Z,100208.22
2019-01-22T16:28:04.636Z,100202.53
2019-01-22T16:30:34.212Z,100193.94
2019-01-22T16:33:03.778Z,100190.89
2019-01-22T16:35:33.368Z,100183.14
2019-01-22T16:38:02.929Z,100178.73
2019-01-22T16:40:32.686Z,100182.48
2019-01-22T16:43:02.257Z,100175.13
2019-01-22T16:45:35.704Z,100170.81
2019-01-22T16:48:05.402Z,100175.84
2019-01-22T16:50:35.482Z,100173.28
2019-01-22T16:53:07.236Z,100169.36
2019-01-22T16:55:40.091Z,100163.63
2019-01-22T16:58:09.820Z,100177.52
2019-01-22T17:00:39.535Z,100174.40
2019-01-22T17:03:10.224Z,100176.78
2019-01-22T17:05:40.114Z,100165.94
2019-01-22T17:08:09.756Z,100169.91
2019-01-22T17:10:39.402Z,100173.49
2019-01-22T17:13:08.959Z,100169.57
2019-01-22T17:15:38.763Z,100169.17
2019-01-22T17:18:09.124Z,100164.77
2019-01-22T17:20:40.043Z,100163.05
2019-01-22T17:23:09.745Z,100163.84
2019-01-22T17:25:39.358Z,100159.61
2019-01-22T17:28:08.985Z,100160.23
2019-01-22T17:30:38.557Z,100158.47
2019-01-22T17:33:10.440Z,100150.55
2019-01-22T17:35:41.690Z,100148.30
2019-01-22T17:38:11.271Z,100152.78
2019-01-22T17:40:40.902Z,100150.85
2019-01-22T17:43:10.546Z,100146.14
2019-01-22T17:45:40.097Z,100143.02
2019-01-22T17:48:10.000Z,100145.00
2019-01-22T17:50:39.715Z,100145.56
2019-01-22T17:53:09.360Z,100141.73
2019-01-22T17:55:38.985Z,100139.88
2019-01-22T17:58:08.568Z,100144.11
2019-01-22T18:00:39.871Z,100135.56
2019-01-22T18:03:09.618Z,100129.09
2019-01-22T18:05:39.175Z,100131.16
2019-01-22T18:08:09.885Z,100136.98
2019-01-22T18:10:39.563Z,100129.23
2019-01-22T18:13:09.152Z,100129.23
2019-01-22T18:15:38.709Z,100128.83
2019-01-22T18:18:08.358Z,100127.41
2019-01-22T18:20:37.916Z,100117.11
2019-01-22T18:23:07.512Z,100116.23
2019-01-22T18:25:37.209Z,100113.41
2019-01-22T18:28:06.864Z,100112.44
2019-01-22T18:30:36.430Z,100114.52
2019-01-22T18:33:06.085Z,100107.64
2019-01-22T18:35:39.596Z,100112.58
2019-01-22T18:38:09.303Z,100111.69
2019-01-22T18:40:38.874Z,100105.74
2019-01-22T18:43:08.464Z,100109.88
2019-01-22T18:45:38.025Z,100111.47
2019-01-22T18:48:07.684Z,100111.37
2019-01-22T18:50:37.386Z,100113.66
2019-01-22T18:53:07.055Z,100098.66
2019-01-22T18:55:36.601Z,100105.28
2019-01-22T18:58:06.326Z,100101.85
2019-01-22T19:00:35.961Z,100103.61
2019-01-22T19:03:06.075Z,100105.69
2019-01-22T19:05:35.699Z,100107.66
2019-01-22T19:08:05.594Z,100100.09
2019-01-22T19:10:35.341Z,100091.16
2019-01-22T19:13:04.967Z,100090.67
2019-01-22T19:15:34.625Z,100100.00
2019-01-22T19:18:04.346Z,100094.41
2019-01-22T19:20:34.093Z,100097.27
2019-01-22T19:23:03.652Z,100098.95
2019-01-22T19:25:33.305Z,100086.18
2019-01-22T19:28:02.937Z,100097.19
2019-01-22T19:30:33.081Z,100085.13
2019-01-22T19:33:02.648Z,100085.83
2019-01-22T19:35:32.233Z,100088.72
2019-01-22T19:38:01.789Z,100081.28
2019-01-22T19:40:31.368Z,100078.55
2019-01-22T19:43:00.996Z,100072.95
2019-01-22T19:45:33.885Z,100077.19
2019-01-22T19:48:03.442Z,100085.94
2019-01-22T19:50:33.032Z,100070.53
2019-01-22T19:53:02.655Z,100070.05
2019-01-22T19:55:32.301Z,100065.28
2019-01-22T19:58:01.860Z,100067.44
2019-01-22T20:00:34.926Z,100063.74
2019-01-22T20:03:05.792Z,100061.50
2019-01-22T20:05:35.708Z,100060.04
2019-01-22T20:08:06.147Z,100056.86
2019-01-22T20:10:36.009Z,100053.97
2019-01-22T20:13:05.903Z,100054.75
2019-01-22T20:15:35.724Z,100045.68
2019-01-22T20:18:05.718Z,100039.52
2019-01-22T20:20:35.390Z,100042.77
2019-01-22T20:23:05.280Z,100045.32
2019-01-22T20:25:34.870Z,100030.32
2019-01-22T20:28:04.565Z,100038.28
2019-01-22T20:30:36.259Z,100034.75
2019-01-22T20:33:06.054Z,100036.28
2019-01-22T20:35:35.634Z,100038.73
2019-01-22T20:38:05.727Z,100033.94
2019-01-22T20:40:36.976Z,100030.81
2019-01-22T20:43:06.632Z,100023.86
2019-01-22T20:45:36.195Z,100024.17
2019-01-22T20:48:06.090Z,100021.95
2019-01-22T20:50:35.644Z,100015.19
2019-01-22T20:53:05.463Z,100016.77
2019-01-22T20:55:35.094Z,100017.86
2019-01-22T20:58:04.807Z,100016.09
2019-01-22T21:00:34.369Z,100015.43
2019-01-22T21:03:03.951Z,100008.88
2019-01-22T21:05:33.568Z,100016.91
2019-01-22T21:08:03.149Z,100008.81
2019-01-22T21:10:34.403Z,100002.05
2019-01-22T21:13:04.327Z,100013.73
2019-01-22T21:15:34.029Z,100009.91
2019-01-22T21:18:03.730Z,100006.30
2019-01-22T21:20:33.283Z,100013.84
2019-01-22T21:23:02.867Z,100004.44
2019-01-22T21:25:32.429Z,100007.87
2019-01-22T21:28:02.163Z,100007.78
2019-01-22T21:30:35.218Z,100009.69
2019-01-22T21:33:06.472Z,100002.89
2019-01-22T21:35:36.162Z,100001.06
2019-01-22T21:38:06.332Z,100008.53
2019-01-22T21:40:35.989Z,100002.27
2019-01-22T21:43:05.831Z,100002.58
2019-01-22T21:45:35.459Z,100003.70
2019-01-22T21:48:05.584Z,100001.05
2019-01-22T21:50:35.213Z,100001.45
2019-01-22T21:53:05.556Z,99999.11
2019-01-22T21:55:35.187Z,99997.55
2019-01-22T21:58:08.590Z,99998.48
2019-01-22T22:00:36.833Z,99992.51
2019-01-22T22:03:06.421Z,99992.41
2019-01-22T22:05:36.136Z,99996.44
2019-01-22T22:08:05.875Z,99999.67
2019-01-22T22:10:43.596Z,99990.91
2019-01-22T22:13:13.263Z,99987.38
2019-01-22T22:15:42.833Z,99989.45
2019-01-22T22:18:12.408Z,99982.91
2019-01-22T22:20:42.547Z,99988.63
2019-01-22T22:23:12.307Z,99983.44
2019-01-22T22:25:41.932Z,99988.33
2019-01-22T22:28:15.217Z,99984.52
2019-01-22T22:30:42.796Z,99983.84
2019-01-22T22:33:12.354Z,99980.16
2019-01-22T22:35:41.944Z,99980.26
2019-01-22T22:38:11.528Z,99976.34
2019-01-22T22:40:41.114Z,99971.45
2019-01-22T22:43:10.666Z,99981.83
2019-01-22T22:45:40.266Z,99974.91
2019-01-22T22:48:09.809Z,99981.38
2019-01-22T22:50:39.389Z,99983.73
2019-01-22T22:53:08.967Z,99988.95
2019-01-22T22:55:38.579Z,99984.45
2019-01-22T22:58:08.128Z,99982.39
2019-01-22T23:00:46.842Z,99981.80
2019-01-22T23:03:17.163Z,99981.54
2019-01-22T23:05:47.119Z,99985.45
2019-01-22T23:08:16.704Z,99983.88
2019-01-22T23:10:46.548Z,99991.80
2019-01-22T23:13:16.105Z,99986.55
2019-01-22T23:15:45.764Z,99983.02
2019-01-22T23:18:15.425Z,99981.55
2019-01-22T23:20:45.035Z,99974.50
2019-01-22T23:23:14.627Z,99973.52
2019-01-22T23:25:44.233Z,99973.74
2019-01-22T23:28:13.825Z,99975.89
2019-01-22T23:30:43.472Z,99967.87
2019-01-22T23:33:13.026Z,99967.27
2019-01-22T23:35:42.626Z,99975.97
2019-01-22T23:38:12.532Z,99963.48
2019-01-22T23:40:42.135Z,99963.09
2019-01-22T23:43:11.720Z,99964.75
2019-01-22T23:45:41.326Z,99954.00
2019-01-22T23:48:10.912Z,99956.34
2019-01-22T23:50:40.520Z,99949.10
2019-01-22T23:53:10.075Z,99949.10
2019-01-22T23:55:39.683Z,99937.47
2019-01-22T23:58:09.264Z,99948.61
